createdAt,value
2022-09-04T00:00:08.761Z,82.26
2022-09-04T00:00:28.826Z,82.22
2022-09-04T00:00:48.910Z,82.26
2022-09-04T00:01:08.975Z,82.23
2022-09-04T00:01:29.053Z,82.21
2022-09-04T00:01:49.100Z,82.14
2022-09-04T00:02:09.161Z,82.06
2022-09-04T00:02:29.211Z,81.9
2022-09-04T00:02:49.287Z,82.36
2022-09-04T00:03:09.344Z,82.77
2022-09-04T00:03:29.416Z,83.29
2022-09-04T00:03:49.596Z,83.48
2022-09-04T00:04:09.708Z,83.66
2022-09-04T00:04:29.687Z,83.79
2022-09-04T00:04:49.826Z,83.78
2022-09-04T00:05:10.000Z,83.83
2022-09-04T00:05:29.776Z,83.77
2022-09-04T00:05:49.851Z,83.59
2022-09-04T00:06:09.937Z,83.34
2022-09-04T00:06:29.998Z,82.75
2022-09-04T00:06:50.043Z,82.6
2022-09-04T00:07:10.120Z,82.74
2022-09-04T00:07:30.178Z,83.16
2022-09-04T00:07:50.235Z,83.24
2022-09-04T00:08:10.298Z,83.2
2022-09-04T00:08:30.386Z,82.82
2022-09-04T00:08:50.438Z,82.54
2022-09-04T00:09:10.482Z,82.4
2022-09-04T00:09:30.555Z,82.28
2022-09-04T00:09:50.649Z,82.67
2022-09-04T00:10:10.703Z,83.21
2022-09-04T00:10:30.757Z,83.45
2022-09-04T00:10:50.811Z,83.56
2022-09-04T00:11:10.887Z,83.6
2022-09-04T00:11:30.926Z,83.76
2022-09-04T00:11:50.986Z,83.56
2022-09-04T00:12:11.083Z,83.69
2022-09-04T00:12:31.130Z,84.02
2022-09-04T00:12:51.195Z,84.38
2022-09-04T00:13:11.261Z,84.57
2022-09-04T00:13:31.365Z,84.7
2022-09-04T00:13:51.383Z,84.79
2022-09-04T00:14:11.500Z,84.87
2022-09-04T00:14:31.508Z,84.93
2022-09-04T00:14:51.582Z,85.04
2022-09-04T00:15:11.635Z,85.1
2022-09-04T00:15:31.705Z,85.24
2022-09-04T00:15:51.772Z,85
2022-09-04T00:16:11.875Z,84.4
2022-09-04T00:16:31.947Z,83.95
2022-09-04T00:16:52.087Z,83.88
2022-09-04T00:17:12.050Z,83.85
2022-09-04T00:17:32.073Z,83.66
2022-09-04T00:17:52.168Z,83.5
2022-09-04T00:18:12.205Z,83.38
2022-09-04T00:18:32.291Z,83.33
2022-09-04T00:18:52.334Z,83.31
2022-09-04T00:19:12.399Z,83.19
2022-09-04T00:19:32.479Z,83.17
2022-09-04T00:19:52.542Z,83.11
2022-09-04T00:20:12.601Z,83.02
2022-09-04T00:20:32.664Z,82.88
2022-09-04T00:20:52.716Z,82.98
2022-09-04T00:21:12.787Z,83.28
2022-09-04T00:21:32.879Z,83.48
2022-09-04T00:21:52.975Z,83.49
2022-09-04T00:22:12.996Z,83.46
2022-09-04T00:22:33.064Z,83.45
2022-09-04T00:22:53.106Z,83.51
2022-09-04T00:23:13.168Z,83.5
2022-09-04T00:23:33.242Z,83.42
2022-09-04T00:23:53.316Z,83.17
2022-09-04T00:24:13.353Z,83.18
2022-09-04T00:24:33.424Z,83.05
2022-09-04T00:24:53.516Z,82.93
2022-09-04T00:25:13.544Z,82.88
2022-09-04T00:25:33.610Z,83.12
2022-09-04T00:25:53.675Z,83.29
2022-09-04T00:26:13.745Z,83.26
2022-09-04T00:26:33.813Z,83.3
2022-09-04T00:26:53.878Z,83.52
2022-09-04T00:27:13.973Z,83.6
2022-09-04T00:27:36.067Z,83.68
2022-09-04T00:27:54.056Z,83.76
2022-09-04T00:28:14.146Z,83.91
2022-09-04T00:28:34.178Z,83.88
2022-09-04T00:28:54.268Z,84.22
2022-09-04T00:29:14.370Z,84.11
2022-09-04T00:29:34.366Z,83.82
2022-09-04T00:29:54.445Z,83.72
2022-09-04T00:30:14.498Z,83.81
2022-09-04T00:30:34.675Z,83.77
2022-09-04T00:30:54.711Z,83.79
2022-09-04T00:31:14.762Z,83.79
2022-09-04T00:31:34.792Z,83.54
2022-09-04T00:31:54.865Z,83.54
2022-09-04T00:32:14.912Z,83.64
2022-09-04T00:32:35.001Z,83.88
2022-09-04T00:32:55.045Z,84.09
2022-09-04T00:33:15.977Z,84.32
2022-09-04T00:33:35.151Z,84.61
2022-09-04T00:33:55.232Z,84.86
2022-09-04T00:34:15.272Z,84.78
2022-09-04T00:34:35.337Z,84.62
2022-09-04T00:34:55.416Z,84.42
2022-09-04T00:35:15.464Z,84.47
2022-09-04T00:35:35.546Z,84.82
2022-09-04T00:35:55.625Z,84.99
2022-09-04T00:36:15.670Z,85.09
2022-09-04T00:36:35.731Z,85.12
2022-09-04T00:36:55.799Z,85.27
2022-09-04T00:37:15.871Z,85.37
2022-09-04T00:37:35.934Z,85.54
2022-09-04T00:37:56.003Z,85.59
2022-09-04T00:38:16.072Z,85.83
2022-09-04T00:38:36.139Z,85.94
2022-09-04T00:38:56.207Z,85.8
2022-09-04T00:39:16.285Z,85.87
2022-09-04T00:39:36.357Z,85.89
2022-09-04T00:39:56.458Z,85.88
2022-09-04T00:40:16.434Z,85.68
2022-09-04T00:40:36.503Z,85.7
2022-09-04T00:40:56.579Z,85.73
2022-09-04T00:41:16.626Z,85.76
2022-09-04T00:41:36.684Z,85.87
2022-09-04T00:41:56.766Z,86.05
2022-09-04T00:42:16.789Z,86.2
2022-09-04T00:42:36.876Z,86.08
2022-09-04T00:42:56.936Z,86.02
2022-09-04T00:43:17.021Z,85.94
2022-09-04T00:43:37.038Z,85.94
2022-09-04T00:43:57.090Z,85.97
2022-09-04T00:44:17.130Z,86.04
2022-09-04T00:44:37.186Z,86.1
2022-09-04T00:44:57.264Z,85.98
2022-09-04T00:45:17.370Z,85.95
2022-09-04T00:45:37.474Z,86.12
2022-09-04T00:45:57.542Z,86.11
2022-09-04T00:46:17.594Z,85.99
2022-09-04T00:46:37.612Z,86.02
2022-09-04T00:46:57.656Z,86.14
2022-09-04T00:47:17.713Z,86.18
2022-09-04T00:47:37.800Z,86.24
2022-09-04T00:47:57.833Z,85.91
2022-09-04T00:48:18.035Z,85.76
2022-09-04T00:48:37.978Z,85.99
2022-09-04T00:48:58.014Z,86.22
2022-09-04T00:49:18.076Z,86.47
2022-09-04T00:49:38.133Z,86.34
2022-09-04T00:49:58.205Z,85.9
2022-09-04T00:50:18.253Z,85.64
2022-09-04T00:50:38.295Z,85.74
2022-09-04T00:50:58.388Z,85.69
2022-09-04T00:51:18.412Z,85.9
2022-09-04T00:51:38.479Z,85.84
2022-09-04T00:51:58.565Z,85.78
2022-09-04T00:52:18.631Z,85.86
2022-09-04T00:52:38.688Z,85.68
2022-09-04T00:52:59.435Z,85.52
2022-09-04T00:53:18.802Z,85.48
2022-09-04T00:53:38.851Z,85.4
2022-09-04T00:53:58.916Z,85.35
2022-09-04T00:54:18.971Z,85.18
2022-09-04T00:54:39.069Z,85.12
2022-09-04T00:54:59.086Z,85.17
2022-09-04T00:55:19.157Z,85.38
2022-09-04T00:55:39.213Z,85.51
2022-09-04T00:55:59.247Z,85.33
2022-09-04T00:56:19.321Z,85.39
2022-09-04T00:56:39.394Z,85.67
2022-09-04T00:56:59.450Z,85.93
2022-09-04T00:57:19.536Z,85.86
2022-09-04T00:57:39.579Z,85.51
2022-09-04T00:57:59.623Z,85.43
2022-09-04T00:58:19.715Z,85.57
2022-09-04T00:58:39.737Z,85.49
2022-09-04T00:58:59.806Z,85.35
2022-09-04T00:59:19.875Z,85.42
2022-09-04T00:59:39.926Z,85.92
2022-09-04T00:59:59.993Z,86.14
2022-09-04T01:00:20.036Z,85.96
2022-09-04T01:00:40.095Z,85.91
2022-09-04T01:01:00.371Z,85.84
2022-09-04T01:01:20.426Z,85.48
2022-09-04T01:01:40.636Z,85.3
2022-09-04T01:02:00.568Z,85.22
2022-09-04T01:02:20.480Z,85.12
2022-09-04T01:02:40.458Z,85.06
2022-09-04T01:03:00.530Z,85.19
2022-09-04T01:03:20.567Z,85.36
2022-09-04T01:03:40.668Z,85.22
2022-09-04T01:04:00.686Z,85.28
2022-09-04T01:04:20.771Z,85.28
2022-09-04T01:04:40.833Z,85.15
2022-09-04T01:05:00.893Z,85.02
2022-09-04T01:05:20.991Z,84.98
2022-09-04T01:05:41.004Z,85.01
2022-09-04T01:06:01.054Z,85.1
2022-09-04T01:06:21.122Z,85.25
2022-09-04T01:06:41.171Z,85.4
2022-09-04T01:07:01.234Z,85.45
2022-09-04T01:07:21.290Z,85.54
2022-09-04T01:07:41.351Z,85.73
2022-09-04T01:08:01.411Z,85.93
2022-09-04T01:08:21.540Z,86.03
2022-09-04T01:08:41.534Z,85.96
2022-09-04T01:09:01.567Z,85.96
2022-09-04T01:09:21.665Z,86
2022-09-04T01:09:41.730Z,86.07
2022-09-04T01:10:01.781Z,86.32
2022-09-04T01:10:21.827Z,86.3
2022-09-04T01:10:41.888Z,86.23
2022-09-04T01:11:02.003Z,86.19
2022-09-04T01:11:22.005Z,86.18
2022-09-04T01:11:42.064Z,86.19
2022-09-04T01:12:02.138Z,86.17
2022-09-04T01:12:22.178Z,86.15
2022-09-04T01:12:42.254Z,86.14
2022-09-04T01:13:02.300Z,86.22
2022-09-04T01:13:22.371Z,86.48
2022-09-04T01:13:42.446Z,86.44
2022-09-04T01:14:02.468Z,86.57
2022-09-04T01:14:22.532Z,86.57
2022-09-04T01:14:42.626Z,86.29
2022-09-04T01:15:02.664Z,86.06
2022-09-04T01:15:22.728Z,86.01
2022-09-04T01:15:42.783Z,85.78
2022-09-04T01:16:02.881Z,85.67
2022-09-04T01:16:22.961Z,85.69
2022-09-04T01:16:43.067Z,85.59
2022-09-04T01:17:03.035Z,85.43
2022-09-04T01:17:23.088Z,85.5
2022-09-04T01:17:43.165Z,85.78
2022-09-04T01:18:03.189Z,86.02
2022-09-04T01:18:23.336Z,86.07
2022-09-04T01:18:43.334Z,86.17
2022-09-04T01:19:03.418Z,86.12
2022-09-04T01:19:23.431Z,86.32
2022-09-04T01:19:43.502Z,85.92
2022-09-04T01:20:03.557Z,85.7
2022-09-04T01:20:23.642Z,85.94
2022-09-04T01:20:43.719Z,85.99
2022-09-04T01:21:03.770Z,86.12
2022-09-04T01:21:23.819Z,86.19
2022-09-04T01:21:43.878Z,86.13
2022-09-04T01:22:03.942Z,86.2
2022-09-04T01:22:23.991Z,86.25
2022-09-04T01:22:44.053Z,86.28
2022-09-04T01:23:04.088Z,86.67
2022-09-04T01:23:24.206Z,86.63
2022-09-04T01:23:44.242Z,86.62
2022-09-04T01:24:04.293Z,86.74
2022-09-04T01:24:24.370Z,86.83
2022-09-04T01:24:44.402Z,86.96
2022-09-04T01:25:04.465Z,86.81
2022-09-04T01:25:24.520Z,86.69
2022-09-04T01:25:44.595Z,86.4
2022-09-04T01:26:04.626Z,86.35
2022-09-04T01:26:24.717Z,86.11
2022-09-04T01:26:44.696Z,86.02
2022-09-04T01:27:04.739Z,85.83
2022-09-04T01:27:24.751Z,85.6
2022-09-04T01:27:44.781Z,85.45
2022-09-04T01:28:04.754Z,85.28
2022-09-04T01:28:24.937Z,85.16
2022-09-04T01:28:44.833Z,85.13
2022-09-04T01:29:04.849Z,85.17
2022-09-04T01:29:24.880Z,85.07
2022-09-04T01:29:44.879Z,84.98
2022-09-04T01:30:04.923Z,84.87
2022-09-04T01:30:24.938Z,84.8
2022-09-04T01:30:44.972Z,84.94
2022-09-04T01:31:05.012Z,84.86
2022-09-04T01:31:25.077Z,85.03
2022-09-04T01:31:45.110Z,84.93
2022-09-04T01:32:05.093Z,85.05
2022-09-04T01:32:25.102Z,85.11
2022-09-04T01:32:45.113Z,85.2
2022-09-04T01:33:05.195Z,85.56
2022-09-04T01:33:25.217Z,86.07
2022-09-04T01:33:45.250Z,86.19
2022-09-04T01:34:05.230Z,86.2
2022-09-04T01:34:25.301Z,86.33
2022-09-04T01:34:45.317Z,86.34
2022-09-04T01:35:05.315Z,86.44
2022-09-04T01:35:25.365Z,86.33
2022-09-04T01:35:45.404Z,86.25
2022-09-04T01:36:05.405Z,86.27
2022-09-04T01:36:25.431Z,86.51
2022-09-04T01:36:45.457Z,86.5
2022-09-04T01:37:05.490Z,86.32
2022-09-04T01:37:25.534Z,86.04
2022-09-04T01:37:45.547Z,85.93
2022-09-04T01:38:05.584Z,85.91
2022-09-04T01:38:25.839Z,85.79
2022-09-04T01:38:45.624Z,85.63
2022-09-04T01:39:05.670Z,85.56
2022-09-04T01:39:25.772Z,85.68
2022-09-04T01:39:45.894Z,85.83
2022-09-04T01:40:06.039Z,85.67
2022-09-04T01:40:35.789Z,85.66
2022-09-04T01:40:46.000Z,85.61
2022-09-04T01:41:06.042Z,85.53
2022-09-04T01:41:26.114Z,85.53
2022-09-04T01:41:46.169Z,85.47
2022-09-04T01:42:06.242Z,85.37
2022-09-04T01:42:26.297Z,85.31
2022-09-04T01:42:46.352Z,85.28
2022-09-04T01:43:06.418Z,85.28
2022-09-04T01:43:26.500Z,85.21
2022-09-04T01:43:46.585Z,85.38
2022-09-04T01:44:06.647Z,85.46
2022-09-04T01:44:26.680Z,85.41
2022-09-04T01:44:46.779Z,85.15
2022-09-04T01:45:06.823Z,85.05
2022-09-04T01:45:26.973Z,85.09
2022-09-04T01:45:47.011Z,85.11
2022-09-04T01:46:07.075Z,85.13
2022-09-04T01:46:27.065Z,85.3
2022-09-04T01:46:47.185Z,85.54
2022-09-04T01:47:07.195Z,85.64
2022-09-04T01:47:27.288Z,85.74
2022-09-04T01:47:47.327Z,85.9
2022-09-04T01:48:07.393Z,85.95
2022-09-04T01:48:27.458Z,85.97
2022-09-04T01:48:47.534Z,85.74
2022-09-04T01:49:07.586Z,85.59
2022-09-04T01:49:27.647Z,85.46
2022-09-04T01:49:47.733Z,85.21
2022-09-04T01:50:07.776Z,85.27
2022-09-04T01:50:27.841Z,85.32
2022-09-04T01:50:47.888Z,85.28
2022-09-04T01:51:07.976Z,85.39
2022-09-04T01:51:28.047Z,85.4
2022-09-04T01:51:48.099Z,85.36
2022-09-04T01:52:08.161Z,85.48
2022-09-04T01:52:28.215Z,85.47
2022-09-04T01:52:48.275Z,85.44
2022-09-04T01:53:08.358Z,85.57
2022-09-04T01:53:28.413Z,85.62
2022-09-04T01:53:48.459Z,85.76
2022-09-04T01:54:08.537Z,85.78
2022-09-04T01:54:28.626Z,85.62
2022-09-04T01:54:48.672Z,85.48
2022-09-04T01:55:08.756Z,85.37
2022-09-04T01:55:28.799Z,85.39
2022-09-04T01:55:48.880Z,85.47
2022-09-04T01:56:08.924Z,85.43
2022-09-04T01:56:28.983Z,85.42
2022-09-04T01:56:49.089Z,85.52
2022-09-04T01:57:09.112Z,85.52
2022-09-04T01:57:29.199Z,85.46
2022-09-04T01:57:49.241Z,85.46
2022-09-04T01:58:09.298Z,85.49
2022-09-04T01:58:29.382Z,85.53
2022-09-04T01:58:49.434Z,85.76
2022-09-04T01:59:09.499Z,85.8
2022-09-04T01:59:29.581Z,85.95
2022-09-04T01:59:53.462Z,85.97
2022-09-04T02:00:09.704Z,86.05
2022-09-04T02:00:29.774Z,86.07
2022-09-04T02:00:49.870Z,85.76
2022-09-04T02:01:09.950Z,85.83
2022-09-04T02:01:30.031Z,85.8
2022-09-04T02:01:50.097Z,85.66
2022-09-04T02:02:10.126Z,85.6
2022-09-04T02:02:52.116Z,85.68
2022-09-04T02:03:45.396Z,86.12
2022-09-04T02:03:50.407Z,86.49
2022-09-04T02:04:10.465Z,86.6
2022-09-04T02:04:30.497Z,86.36
2022-09-04T02:04:50.540Z,86.32
2022-09-04T02:05:10.596Z,86.43
2022-09-04T02:05:30.618Z,86.52
2022-09-04T02:05:50.682Z,86.54
2022-09-04T02:06:10.732Z,86.63
2022-09-04T02:06:30.771Z,86.93
2022-09-04T02:06:50.812Z,86.95
2022-09-04T02:07:10.872Z,87.15
2022-09-04T02:07:30.993Z,87.27
2022-09-04T02:07:50.952Z,87.47
2022-09-04T02:08:10.999Z,87.48
2022-09-04T02:08:31.047Z,87.21
2022-09-04T02:08:51.119Z,87.3
2022-09-04T02:09:11.180Z,87.45
2022-09-04T02:09:31.193Z,87.43
2022-09-04T02:09:53.922Z,87.64
2022-09-04T02:10:11.285Z,87.58
2022-09-04T02:10:31.306Z,87.44
2022-09-04T02:10:51.334Z,87.41
2022-09-04T02:11:11.370Z,87.61
2022-09-04T02:11:31.392Z,87.52
2022-09-04T02:11:51.434Z,87.44
2022-09-04T02:12:11.465Z,87.25
2022-09-04T02:12:31.519Z,87.49
2022-09-04T02:12:51.509Z,87.64
2022-09-04T02:13:11.543Z,87.43
2022-09-04T02:13:31.551Z,87.33
2022-09-04T02:13:51.577Z,87.33
2022-09-04T02:15:06.743Z,87.04
2022-09-04T02:15:11.707Z,86.93
2022-09-04T02:15:31.708Z,86.86
2022-09-04T02:15:51.762Z,86.93
2022-09-04T02:16:11.830Z,87.06
2022-09-04T02:16:31.907Z,87.15
2022-09-04T02:16:51.904Z,87.28
2022-09-04T02:17:11.949Z,87.58
2022-09-04T02:17:31.996Z,87.81
2022-09-04T02:17:52.036Z,87.9
2022-09-04T02:18:12.081Z,87.39
2022-09-04T02:18:32.130Z,87.14
2022-09-04T02:18:52.144Z,86.99
2022-09-04T02:19:12.237Z,87.07
2022-09-04T02:19:32.265Z,87.25
2022-09-04T02:19:52.339Z,87.31
2022-09-04T02:20:12.392Z,87.3
2022-09-04T02:20:32.450Z,87.54
2022-09-04T02:20:52.512Z,87.7
2022-09-04T02:21:12.574Z,87.74
2022-09-04T02:21:32.614Z,87.7
2022-09-04T02:21:52.688Z,87.61
2022-09-04T02:22:12.766Z,87.39
2022-09-04T02:22:32.812Z,87.32
2022-09-04T02:22:52.871Z,87.27
2022-09-04T02:23:12.951Z,87.29
2022-09-04T02:23:32.982Z,87.29
2022-09-04T02:23:53.060Z,87.16
2022-09-04T02:24:13.102Z,87.03
2022-09-04T02:24:33.183Z,87.05
2022-09-04T02:24:53.228Z,87.21
2022-09-04T02:25:13.304Z,87.55
2022-09-04T02:25:33.345Z,87.92
2022-09-04T02:25:53.408Z,87.93
2022-09-04T02:26:13.475Z,87.88
2022-09-04T02:26:33.528Z,87.89
2022-09-04T02:26:53.611Z,87.93
2022-09-04T02:27:13.638Z,87.78
2022-09-04T02:27:33.710Z,87.52
2022-09-04T02:27:53.786Z,87.42
2022-09-04T02:28:13.827Z,87.4
2022-09-04T02:28:33.907Z,87.57
2022-09-04T02:28:53.940Z,87.79
2022-09-04T02:29:14.023Z,88.02
2022-09-04T02:29:34.091Z,87.86
2022-09-04T02:29:54.112Z,87.57
2022-09-04T02:30:14.193Z,87.45
2022-09-04T02:30:34.245Z,87.6
2022-09-04T02:30:54.722Z,87.7
2022-09-04T02:31:14.436Z,87.7
2022-09-04T02:31:34.527Z,87.49
2022-09-04T02:31:54.572Z,87.35
2022-09-04T02:32:14.553Z,87.18
2022-09-04T02:32:34.635Z,87.11
2022-09-04T02:32:54.669Z,87.25
2022-09-04T02:33:14.727Z,87.53
2022-09-04T02:33:34.775Z,87.56
2022-09-04T02:33:54.846Z,87.31
2022-09-04T02:34:14.921Z,87.28
2022-09-04T02:34:34.974Z,87.23
2022-09-04T02:34:55.045Z,87.09
2022-09-04T02:35:15.082Z,87
2022-09-04T02:35:35.132Z,87.03
2022-09-04T02:35:55.233Z,87.16
2022-09-04T02:36:15.252Z,87.29
2022-09-04T02:36:35.340Z,87.41
2022-09-04T02:36:55.383Z,87.45
2022-09-04T02:37:15.434Z,87.48
2022-09-04T02:37:35.506Z,87.57
2022-09-04T02:37:55.601Z,87.98
2022-09-04T02:38:15.624Z,88.1
2022-09-04T02:38:35.681Z,88.08
2022-09-04T02:38:55.744Z,87.79
2022-09-04T02:39:15.810Z,87.9
2022-09-04T02:39:35.955Z,88.16
2022-09-04T02:39:56.013Z,88.32
2022-09-04T02:40:15.988Z,88.13
2022-09-04T02:40:36.045Z,88.07
2022-09-04T02:40:56.089Z,88.1
2022-09-04T02:41:16.182Z,88.2
2022-09-04T02:41:36.248Z,88.06
2022-09-04T02:41:56.306Z,88.08
2022-09-04T02:42:16.358Z,88.18
2022-09-04T02:42:36.401Z,88.19
2022-09-04T02:42:56.456Z,88.22
2022-09-04T02:43:16.542Z,88.15
2022-09-04T02:43:36.598Z,88.17
2022-09-04T02:43:56.649Z,88.2
2022-09-04T02:44:16.696Z,88.29
2022-09-04T02:44:36.782Z,88.32
2022-09-04T02:44:56.819Z,88.23
2022-09-04T02:45:16.884Z,88.24
2022-09-04T02:45:36.966Z,88.05
2022-09-04T02:45:57.007Z,87.85
2022-09-04T02:46:17.115Z,87.59
2022-09-04T02:46:41.193Z,87.46
2022-09-04T02:46:57.273Z,87.34
2022-09-04T02:47:17.239Z,87.33
2022-09-04T02:47:37.318Z,87.37
2022-09-04T02:47:57.365Z,87.23
2022-09-04T02:48:17.544Z,87.33
2022-09-04T02:48:37.499Z,87.36
2022-09-04T02:48:57.547Z,87.65
2022-09-04T02:49:17.599Z,87.78
2022-09-04T02:49:37.671Z,87.91
2022-09-04T02:49:57.734Z,88.29
2022-09-04T02:50:17.791Z,88.28
2022-09-04T02:50:37.879Z,88.35
2022-09-04T02:50:57.917Z,88.23
2022-09-04T02:51:17.981Z,88.03
2022-09-04T02:51:38.053Z,88.16
2022-09-04T02:51:58.085Z,88.3
2022-09-04T02:52:18.149Z,88.25
2022-09-04T02:52:38.204Z,88.12
2022-09-04T02:52:58.307Z,88.38
2022-09-04T02:53:18.573Z,88.67
2022-09-04T02:53:38.384Z,89.11
2022-09-04T02:53:58.462Z,89.24
2022-09-04T02:54:18.509Z,89.33
2022-09-04T02:54:38.559Z,89.41
2022-09-04T02:54:58.617Z,89.5
2022-09-04T02:55:18.683Z,89.52
2022-09-04T02:55:38.746Z,89.44
2022-09-04T02:55:58.801Z,89.31
2022-09-04T02:56:18.875Z,89.21
2022-09-04T02:56:38.917Z,89.43
2022-09-04T02:56:58.979Z,89.54
2022-09-04T02:57:19.063Z,89.41
2022-09-04T02:57:39.113Z,89.36
2022-09-04T02:57:59.183Z,89.36
2022-09-04T02:58:19.210Z,89.33
2022-09-04T02:58:39.270Z,89.43
2022-09-04T02:58:59.375Z,89.43
2022-09-04T02:59:19.393Z,89.38
2022-09-04T02:59:39.454Z,89.3
2022-09-04T02:59:59.521Z,89.13
2022-09-04T03:00:21.366Z,89.02
2022-09-04T03:00:39.698Z,88.97
2022-09-04T03:00:59.749Z,88.87
2022-09-04T03:01:19.846Z,88.87
2022-09-04T03:01:39.847Z,88.81
2022-09-04T03:01:59.939Z,88.93
2022-09-04T03:02:19.984Z,88.9
2022-09-04T03:02:40.020Z,88.75
2022-09-04T03:03:00.045Z,88.59
2022-09-04T03:03:20.109Z,88.64
2022-09-04T03:03:40.184Z,88.61
2022-09-04T03:04:00.260Z,88.66
2022-09-04T03:04:20.309Z,88.66
2022-09-04T03:04:40.358Z,88.77
2022-09-04T03:05:00.436Z,88.83
2022-09-04T03:05:20.465Z,88.73
2022-09-04T03:05:40.540Z,88.63
2022-09-04T03:06:00.617Z,88.56
2022-09-04T03:06:20.658Z,88.71
2022-09-04T03:06:40.725Z,88.6
2022-09-04T03:07:00.785Z,88.41
2022-09-04T03:07:20.867Z,88.37
2022-09-04T03:07:40.911Z,88.4
2022-09-04T03:08:00.959Z,88.35
2022-09-04T03:08:21.039Z,88.24
2022-09-04T03:08:41.088Z,88.28
2022-09-04T03:09:01.154Z,88.55
2022-09-04T03:09:21.200Z,88.71
2022-09-04T03:09:41.287Z,88.66
2022-09-04T03:10:01.330Z,88.73
2022-09-04T03:10:21.394Z,88.96
2022-09-04T03:10:41.438Z,89.06
2022-09-04T03:11:01.553Z,89.23
2022-09-04T03:11:21.559Z,89.43
2022-09-04T03:11:41.627Z,89.79
2022-09-04T03:12:01.678Z,89.96
2022-09-04T03:12:21.742Z,90.06
2022-09-04T03:12:41.811Z,90
2022-09-04T03:13:01.852Z,89.97
2022-09-04T03:13:21.929Z,90.01
2022-09-04T03:13:41.966Z,90.08
2022-09-04T03:14:02.030Z,90.1
2022-09-04T03:14:22.126Z,90.21
2022-09-04T03:14:42.187Z,90.4
2022-09-04T03:15:02.209Z,90.66
2022-09-04T03:15:22.279Z,90.68
2022-09-04T03:15:42.348Z,90.59
2022-09-04T03:16:02.417Z,90.48
2022-09-04T03:16:22.500Z,90.44
2022-09-04T03:16:42.553Z,90.37
2022-09-04T03:17:02.582Z,90.2
2022-09-04T03:17:22.645Z,90.09
2022-09-04T03:17:42.729Z,90.07
2022-09-04T03:18:02.782Z,90.17
2022-09-04T03:18:22.831Z,90.26
2022-09-04T03:18:42.873Z,90.28
2022-09-04T03:19:02.958Z,90.12
2022-09-04T03:19:23.003Z,89.99
2022-09-04T03:19:43.048Z,89.89
2022-09-04T03:20:03.138Z,89.92
2022-09-04T03:20:23.165Z,90
2022-09-04T03:20:43.238Z,90.06
2022-09-04T03:21:03.340Z,90.06
2022-09-04T03:21:23.371Z,90.06
2022-09-04T03:21:43.450Z,89.99
2022-09-04T03:22:03.479Z,89.95
2022-09-04T03:22:23.533Z,89.89
2022-09-04T03:22:43.571Z,89.84
2022-09-04T03:23:03.655Z,89.7
2022-09-04T03:23:23.711Z,89.53
2022-09-04T03:23:43.770Z,89.54
2022-09-04T03:24:03.842Z,89.51
2022-09-04T03:24:23.904Z,89.53
2022-09-04T03:24:43.981Z,89.62
2022-09-04T03:25:04.043Z,89.63
2022-09-04T03:25:24.071Z,89.85
2022-09-04T03:25:44.127Z,90.01
2022-09-04T03:26:04.183Z,90.13
2022-09-04T03:26:24.258Z,90.26
2022-09-04T03:26:44.337Z,90.43
2022-09-04T03:27:04.386Z,90.56
2022-09-04T03:27:24.463Z,90.66
2022-09-04T03:27:44.488Z,90.69
2022-09-04T03:28:04.542Z,90.61
2022-09-04T03:28:24.658Z,90.63
2022-09-04T03:28:44.676Z,90.77
2022-09-04T03:29:04.731Z,90.92
2022-09-04T03:29:24.796Z,90.98
2022-09-04T03:29:44.851Z,90.96
2022-09-04T03:30:04.905Z,91.03
2022-09-04T03:30:24.953Z,91.17
2022-09-04T03:30:45.027Z,91.31
2022-09-04T03:31:05.151Z,91.37
2022-09-04T03:31:25.209Z,91.44
2022-09-04T03:31:45.308Z,91.55
2022-09-04T03:32:15.545Z,91.62
2022-09-04T03:32:25.334Z,91.58
2022-09-04T03:32:45.393Z,91.47
2022-09-04T03:33:05.434Z,91.37
2022-09-04T03:33:25.463Z,91.36
2022-09-04T03:33:45.518Z,91.31
2022-09-04T03:34:05.594Z,91.26
2022-09-04T03:34:25.633Z,91.23
2022-09-04T03:34:45.714Z,91.15
2022-09-04T03:35:05.769Z,90.98
2022-09-04T03:35:25.839Z,90.86
2022-09-04T03:35:45.893Z,90.9
2022-09-04T03:36:05.945Z,91
2022-09-04T03:36:26.030Z,91.19
2022-09-04T03:36:46.089Z,91.17
2022-09-04T03:37:06.138Z,91.05
2022-09-04T03:37:26.210Z,90.85
2022-09-04T03:37:46.280Z,90.68
2022-09-04T03:38:06.340Z,90.49
2022-09-04T03:38:26.413Z,90.42
2022-09-04T03:38:46.449Z,90.44
2022-09-04T03:39:06.500Z,90.4
2022-09-04T03:39:26.657Z,90.46
2022-09-04T03:39:46.697Z,90.57
2022-09-04T03:40:06.724Z,90.63
2022-09-04T03:40:26.766Z,90.66
2022-09-04T03:40:46.864Z,90.65
2022-09-04T03:41:06.903Z,90.65
2022-09-04T03:41:26.973Z,90.6
2022-09-04T03:41:47.005Z,90.46
2022-09-04T03:42:07.091Z,90.35
2022-09-04T03:42:27.166Z,90.34
2022-09-04T03:42:47.198Z,90.43
2022-09-04T03:43:07.232Z,90.55
2022-09-04T03:43:27.317Z,90.73
2022-09-04T03:43:47.375Z,90.99
2022-09-04T03:44:07.479Z,91.16
2022-09-04T03:44:27.539Z,91.4
2022-09-04T03:44:47.565Z,91.68
2022-09-04T03:45:07.619Z,91.79
2022-09-04T03:45:27.655Z,91.74
2022-09-04T03:45:47.755Z,91.71
2022-09-04T03:46:07.901Z,91.7
2022-09-04T03:46:27.924Z,91.67
2022-09-04T03:46:48.076Z,91.62
2022-09-04T03:47:07.981Z,91.62
2022-09-04T03:47:28.068Z,91.69
2022-09-04T03:47:48.106Z,91.78
2022-09-04T03:48:08.153Z,91.91
2022-09-04T03:48:28.197Z,92.01
2022-09-04T03:48:48.268Z,92.05
2022-09-04T03:49:08.331Z,92.04
2022-09-04T03:49:28.394Z,91.83
2022-09-04T03:49:48.441Z,91.75
2022-09-04T03:50:08.520Z,91.68
2022-09-04T03:50:28.593Z,91.66
2022-09-04T03:50:48.657Z,91.54
2022-09-04T03:51:08.681Z,91.42
2022-09-04T03:51:28.751Z,91.42
2022-09-04T03:51:49.675Z,91.36
2022-09-04T03:52:08.886Z,91.43
2022-09-04T03:52:28.947Z,91.33
2022-09-04T03:52:49.005Z,91.21
2022-09-04T03:53:09.044Z,91.14
2022-09-04T03:53:29.130Z,90.96
2022-09-04T03:53:49.183Z,91
2022-09-04T03:54:09.230Z,91.17
2022-09-04T03:54:29.298Z,91.28
2022-09-04T03:54:49.358Z,91.31
2022-09-04T03:55:09.405Z,91.33
2022-09-04T03:55:29.446Z,91.26
2022-09-04T03:55:49.507Z,91.1
2022-09-04T03:56:09.589Z,91.12
2022-09-04T03:56:29.652Z,91.26
2022-09-04T03:56:49.713Z,91.31
2022-09-04T03:57:09.758Z,91.4
2022-09-04T03:57:29.818Z,91.52
2022-09-04T03:57:49.875Z,91.65
2022-09-04T03:58:09.945Z,91.71
2022-09-04T03:58:29.989Z,91.75
2022-09-04T03:58:50.060Z,91.81
2022-09-04T03:59:10.139Z,91.91
2022-09-04T03:59:30.175Z,92.05
2022-09-04T03:59:50.248Z,92.03
2022-09-04T04:00:10.308Z,92.1
2022-09-04T04:00:30.383Z,92.18
2022-09-04T04:00:50.440Z,92.16
2022-09-04T04:01:10.551Z,92.34
2022-09-04T04:01:30.589Z,92.42
2022-09-04T04:01:50.585Z,92.41
2022-09-04T04:02:10.652Z,92.44
2022-09-04T04:02:30.797Z,92.52
2022-09-04T04:02:50.954Z,92.55
2022-09-04T04:03:10.947Z,92.63
2022-09-04T04:03:30.894Z,92.74
2022-09-04T04:03:50.952Z,92.73
2022-09-04T04:04:11.019Z,92.88
2022-09-04T04:04:31.077Z,92.95
2022-09-04T04:04:51.120Z,92.8
2022-09-04T04:05:11.189Z,92.76
2022-09-04T04:05:31.271Z,92.64
2022-09-04T04:05:51.324Z,92.55
2022-09-04T04:06:11.378Z,92.44
2022-09-04T04:06:31.439Z,92.36
2022-09-04T04:06:51.474Z,92.42
2022-09-04T04:07:11.558Z,92.52
2022-09-04T04:07:31.606Z,92.57
2022-09-04T04:07:51.668Z,92.63
2022-09-04T04:08:11.724Z,92.78
2022-09-04T04:08:31.805Z,92.95
2022-09-04T04:08:51.825Z,93
2022-09-04T04:09:11.966Z,93.02
2022-09-04T04:09:31.966Z,92.93
2022-09-04T04:09:52.072Z,92.84
2022-09-04T04:10:12.076Z,92.71
2022-09-04T04:10:32.152Z,92.5
2022-09-04T04:10:52.196Z,92.47
2022-09-04T04:11:12.265Z,92.56
2022-09-04T04:11:32.318Z,92.72
2022-09-04T04:11:52.385Z,92.81
2022-09-04T04:12:12.439Z,92.93
2022-09-04T04:12:32.486Z,92.99
2022-09-04T04:12:52.565Z,92.86
2022-09-04T04:13:12.632Z,92.68
2022-09-04T04:13:32.683Z,92.47
2022-09-04T04:13:52.751Z,92.43
2022-09-04T04:14:12.817Z,92.37
2022-09-04T04:14:32.861Z,92.37
2022-09-04T04:14:52.941Z,92.37
2022-09-04T04:15:12.980Z,92.35
2022-09-04T04:15:33.069Z,92.25
2022-09-04T04:15:53.150Z,92.16
2022-09-04T04:16:13.270Z,92
2022-09-04T04:16:33.333Z,91.89
2022-09-04T04:16:56.073Z,91.78
2022-09-04T04:17:16.562Z,91.83
2022-09-04T04:17:33.407Z,91.87
2022-09-04T04:17:53.463Z,91.94
2022-09-04T04:18:13.563Z,91.96
2022-09-04T04:18:33.571Z,91.96
2022-09-04T04:18:53.641Z,91.91
2022-09-04T04:19:13.743Z,91.81
2022-09-04T04:19:33.755Z,91.77
2022-09-04T04:19:53.816Z,91.95
2022-09-04T04:20:13.877Z,91.96
2022-09-04T04:20:33.962Z,91.89